sensor_id;sensor_type;location;lat;lon;timestamp;pressure;altitude;pressure_sealevel;temperature;humidity
38616;BME280;24370;51.986;4.666;2023-02-23T00:01:17;101374.34;;;18.09;50.92
38616;BME280;24370;51.986;4.666;2023-02-23T00:03:44;101379.06;;;17.99;50.72
38616;BME280;24370;51.986;4.666;2023-02-23T00:06:10;101376.56;;;17.66;51.59
38616;BME280;24370;51.986;4.666;2023-02-23T00:08:36;101383.47;;;17.70;51.61
38616;BME280;24370;51.986;4.666;2023-02-23T00:11:07;101377.63;;;17.89;51.14
38616;BME280;24370;51.986;4.666;2023-02-23T00:13:34;101370.03;;;17.78;51.53
38616;BME280;24370;51.986;4.666;2023-02-23T00:16:12;101376.47;;;17.97;50.21
38616;BME280;24370;51.986;4.666;2023-02-23T00:18:42;101374.28;;;18.10;50.09
38616;BME280;24370;51.986;4.666;2023-02-23T00:21:17;101369.59;;;18.45;49.80
38616;BME280;24370;51.986;4.666;2023-02-23T00:23:47;101374.84;;;18.20;50.00
38616;BME280;24370;51.986;4.666;2023-02-23T00:26:13;101374.63;;;18.01;50.35
38616;BME280;24370;51.986;4.666;2023-02-23T00:28:41;101375.63;;;17.97;50.01
38616;BME280;24370;51.986;4.666;2023-02-23T00:31:07;101380.44;;;17.83;50.27
38616;BME280;24370;51.986;4.666;2023-02-23T00:33:32;101375.78;;;18.19;50.71
38616;BME280;24370;51.986;4.666;2023-02-23T00:36:04;101374.78;;;17.95;50.73
38616;BME280;24370;51.986;4.666;2023-02-23T00:38:29;101373.78;;;17.99;51.44
38616;BME280;24370;51.986;4.666;2023-02-23T00:41:03;101371.16;;;18.26;50.78
38616;BME280;24370;51.986;4.666;2023-02-23T00:43:33;101367.25;;;18.11;50.44
38616;BME280;24370;51.986;4.666;2023-02-23T00:45:58;101361.31;;;18.29;48.87
38616;BME280;24370;51.986;4.666;2023-02-23T00:48:24;101370.59;;;17.88;51.18
38616;BME280;24370;51.986;4.666;2023-02-23T00:51:03;101372.22;;;17.63;52.45
38616;BME280;24370;51.986;4.666;2023-02-23T00:53:30;101362.13;;;18.05;50.82
38616;BME280;24370;51.986;4.666;2023-02-23T00:55:56;101367.72;;;17.95;50.48
38616;BME280;24370;51.986;4.666;2023-02-23T00:58:23;101370.09;;;17.46;51.41
38616;BME280;24370;51.986;4.666;2023-02-23T01:00:49;101357.81;;;17.45;51.64
38616;BME280;24370;51.986;4.666;2023-02-23T01:03:14;101370.56;;;17.31;51.25
38616;BME280;24370;51.986;4.666;2023-02-23T01:05:39;101367.91;;;17.01;52.90
38616;BME280;24370;51.986;4.666;2023-02-23T01:08:05;101374.38;;;17.21;53.32
38616;BME280;24370;51.986;4.666;2023-02-23T01:10:38;101372.00;;;17.41;53.01
38616;BME280;24370;51.986;4.666;2023-02-23T01:13:03;101381.84;;;17.66;51.53
38616;BME280;24370;51.986;4.666;2023-02-23T01:15:30;101385.88;;;17.50;53.21
38616;BME280;24370;51.986;4.666;2023-02-23T01:17:56;101383.09;;;17.24;52.88
38616;BME280;24370;51.986;4.666;2023-02-23T01:20:22;101379.03;;;17.71;51.52
38616;BME280;24370;51.986;4.666;2023-02-23T01:22:49;101383.75;;;17.61;52.06
38616;BME280;24370;51.986;4.666;2023-02-23T01:25:16;101391.31;;;17.73;52.22
38616;BME280;24370;51.986;4.666;2023-02-23T01:27:42;101380.09;;;17.95;51.07
38616;BME280;24370;51.986;4.666;2023-02-23T01:30:10;101381.66;;;17.72;51.09
38616;BME280;24370;51.986;4.666;2023-02-23T01:32:36;101385.56;;;17.87;50.64
38616;BME280;24370;51.986;4.666;2023-02-23T01:35:04;101378.47;;;18.18;49.66
38616;BME280;24370;51.986;4.666;2023-02-23T01:37:30;101378.69;;;18.11;49.47
38616;BME280;24370;51.986;4.666;2023-02-23T01:39:59;101383.75;;;17.89;50.21
38616;BME280;24370;51.986;4.666;2023-02-23T01:42:24;101381.06;;;17.91;50.46
38616;BME280;24370;51.986;4.666;2023-02-23T01:47:40;101376.94;;;17.82;50.66
38616;BME280;24370;51.986;4.666;2023-02-23T01:50:06;101381.94;;;17.91;50.32
38616;BME280;24370;51.986;4.666;2023-02-23T01:52:32;101375.88;;;17.88;50.52
38616;BME280;24370;51.986;4.666;2023-02-23T01:55:01;101380.41;;;17.56;51.32
38616;BME280;24370;51.986;4.666;2023-02-23T01:57:26;101380.44;;;17.83;50.92
38616;BME280;24370;51.986;4.666;2023-02-23T01:59:51;101379.53;;;17.84;50.16
38616;BME280;24370;51.986;4.666;2023-02-23T02:02:20;101378.47;;;17.89;50.16
38616;BME280;24370;51.986;4.666;2023-02-23T02:04:47;101385.09;;;17.74;50.12
38616;BME280;24370;51.986;4.666;2023-02-23T02:07:25;101384.84;;;17.54;51.26
38616;BME280;24370;51.986;4.666;2023-02-23T02:09:55;101390.34;;;17.76;50.78
38616;BME280;24370;51.986;4.666;2023-02-23T02:12:42;101389.34;;;17.52;51.05
38616;BME280;24370;51.986;4.666;2023-02-23T02:15:09;101397.50;;;17.12;52.43
38616;BME280;24370;51.986;4.666;2023-02-23T02:18:02;101397.34;;;17.49;51.34
38616;BME280;24370;51.986;4.666;2023-02-23T02:26:34;101396.16;;;17.29;51.55
38616;BME280;24370;51.986;4.666;2023-02-23T02:42:58;101381.94;;;17.63;50.39
38616;BME280;24370;51.986;4.666;2023-02-23T02:45:29;101387.75;;;17.74;51.23
38616;BME280;24370;51.986;4.666;2023-02-23T02:50:41;101382.41;;;17.48;51.17
38616;BME280;24370;51.986;4.666;2023-02-23T02:53:13;101379.44;;;17.87;50.52
38616;BME280;24370;51.986;4.666;2023-02-23T02:55:42;101383.28;;;17.76;50.60
38616;BME280;24370;51.986;4.666;2023-02-23T02:58:11;101375.81;;;17.61;50.43
38616;BME280;24370;51.986;4.666;2023-02-23T03:00:39;101373.13;;;17.92;49.59
38616;BME280;24370;51.986;4.666;2023-02-23T03:06:12;101380.94;;;17.67;50.38
38616;BME280;24370;51.986;4.666;2023-02-23T03:09:29;101374.38;;;17.79;50.45
38616;BME280;24370;51.986;4.666;2023-02-23T03:12:44;101382.34;;;18.07;49.69
38616;BME280;24370;51.986;4.666;2023-02-23T03:16:20;101379.94;;;17.71;50.55
38616;BME280;24370;51.986;4.666;2023-02-23T03:19:24;101370.78;;;17.81;49.82
38616;BME280;24370;51.986;4.666;2023-02-23T03:22:20;101378.09;;;17.45;50.55
38616;BME280;24370;51.986;4.666;2023-02-23T03:25:15;101382.38;;;17.77;50.06
38616;BME280;24370;51.986;4.666;2023-02-23T03:31:04;101382.00;;;17.32;51.01
38616;BME280;24370;51.986;4.666;2023-02-23T03:34:01;101386.59;;;16.93;51.83
38616;BME280;24370;51.986;4.666;2023-02-23T03:36:54;101387.50;;;17.54;51.16
38616;BME280;24370;51.986;4.666;2023-02-23T03:39:46;101394.63;;;17.52;50.15
38616;BME280;24370;51.986;4.666;2023-02-23T03:42:35;101400.34;;;17.36;50.91
38616;BME280;24370;51.986;4.666;2023-02-23T03:45:22;101398.19;;;17.51;50.98
38616;BME280;24370;51.986;4.666;2023-02-23T03:48:09;101404.81;;;17.64;50.20
38616;BME280;24370;51.986;4.666;2023-02-23T03:50:58;101401.91;;;17.43;51.14
38616;BME280;24370;51.986;4.666;2023-02-23T03:53:50;101409.28;;;17.32;51.48
38616;BME280;24370;51.986;4.666;2023-02-23T03:56:40;101414.63;;;17.60;50.57
38616;BME280;24370;51.986;4.666;2023-02-23T03:59:29;101414.41;;;17.68;50.40
38616;BME280;24370;51.986;4.666;2023-02-23T04:02:17;101412.38;;;17.76;50.16
38616;BME280;24370;51.986;4.666;2023-02-23T04:05:07;101422.69;;;17.56;50.48
38616;BME280;24370;51.986;4.666;2023-02-23T04:07:53;101414.72;;;17.57;50.41
38616;BME280;24370;51.986;4.666;2023-02-23T04:10:45;101415.84;;;17.49;51.23
38616;BME280;24370;51.986;4.666;2023-02-23T04:13:32;101412.81;;;17.91;49.55
38616;BME280;24370;51.986;4.666;2023-02-23T04:16:02;101412.78;;;18.21;48.64
38616;BME280;24370;51.986;4.666;2023-02-23T04:18:32;101413.47;;;17.69;49.72
38616;BME280;24370;51.986;4.666;2023-02-23T04:20:58;101420.94;;;17.85;49.83
38616;BME280;24370;51.986;4.666;2023-02-23T04:23:24;101412.78;;;17.92;49.61
38616;BME280;24370;51.986;4.666;2023-02-23T04:25:51;101420.06;;;17.56;50.22
38616;BME280;24370;51.986;4.666;2023-02-23T04:28:18;101417.16;;;18.22;49.10
38616;BME280;24370;51.986;4.666;2023-02-23T04:30:44;101419.38;;;18.07;48.56
38616;BME280;24370;51.986;4.666;2023-02-23T04:33:10;101415.78;;;17.80;49.64
38616;BME280;24370;51.986;4.666;2023-02-23T04:35:35;101415.81;;;17.78;49.64
38616;BME280;24370;51.986;4.666;2023-02-23T04:38:02;101422.31;;;17.68;49.81
38616;BME280;24370;51.986;4.666;2023-02-23T04:40:27;101412.38;;;17.76;49.67
38616;BME280;24370;51.986;4.666;2023-02-23T04:42:53;101418.69;;;17.72;49.71
38616;BME280;24370;51.986;4.666;2023-02-23T04:45:20;101414.41;;;18.25;48.85
38616;BME280;24370;51.986;4.666;2023-02-23T04:47:46;101417.34;;;18.16;48.38
38616;BME280;24370;51.986;4.666;2023-02-23T04:50:12;101422.84;;;18.09;48.41
38616;BME280;24370;51.986;4.666;2023-02-23T04:52:38;101420.91;;;17.56;50.22
38616;BME280;24370;51.986;4.666;2023-02-23T04:55:05;101423.69;;;18.10;48.93
38616;BME280;24370;51.986;4.666;2023-02-23T04:57:31;101431.00;;;18.30;47.97
38616;BME280;24370;51.986;4.666;2023-02-23T04:59:58;101431.13;;;17.99;48.64
38616;BME280;24370;51.986;4.666;2023-02-23T05:02:23;101426.41;;;17.78;49.19
38616;BME280;24370;51.986;4.666;2023-02-23T05:04:49;101420.47;;;17.70;49.56
38616;BME280;24370;51.986;4.666;2023-02-23T05:07:15;101436.44;;;17.67;49.24
38616;BME280;24370;51.986;4.666;2023-02-23T05:09:40;101431.88;;;18.02;48.49
38616;BME280;24370;51.986;4.666;2023-02-23T05:12:06;101440.00;;;17.66;48.93
38616;BME280;24370;51.986;4.666;2023-02-23T05:14:31;101447.47;;;17.52;49.44
38616;BME280;24370;51.986;4.666;2023-02-23T05:16:56;101454.22;;;17.62;49.23
38616;BME280;24370;51.986;4.666;2023-02-23T05:19:22;101455.13;;;17.31;49.18
38616;BME280;24370;51.986;4.666;2023-02-23T05:21:48;101454.06;;;17.05;49.99
38616;BME280;24370;51.986;4.666;2023-02-23T05:24:15;101464.19;;;17.21;50.19
38616;BME280;24370;51.986;4.666;2023-02-23T05:26:41;101449.66;;;17.37;49.54
38616;BME280;24370;51.986;4.666;2023-02-23T05:29:07;101466.97;;;17.77;48.45
38616;BME280;24370;51.986;4.666;2023-02-23T05:31:32;101461.03;;;17.69;48.62
38616;BME280;24370;51.986;4.666;2023-02-23T05:33:58;101468.78;;;17.45;49.11
38616;BME280;24370;51.986;4.666;2023-02-23T05:36:23;101463.84;;;17.33;49.53
38616;BME280;24370;51.986;4.666;2023-02-23T05:38:48;101471.03;;;17.28;49.49
38616;BME280;24370;51.986;4.666;2023-02-23T05:41:17;101464.72;;;17.02;50.10
38616;BME280;24370;51.986;4.666;2023-02-23T05:43:43;101459.81;;;17.20;49.83
38616;BME280;24370;51.986;4.666;2023-02-23T05:46:11;101466.53;;;17.32;49.84
38616;BME280;24370;51.986;4.666;2023-02-23T05:48:37;101471.78;;;17.33;49.56
38616;BME280;24370;51.986;4.666;2023-02-23T05:51:04;101471.31;;;17.19;49.97
38616;BME280;24370;51.986;4.666;2023-02-23T05:53:30;101473.91;;;17.20;49.77
38616;BME280;24370;51.986;4.666;2023-02-23T05:55:55;101457.03;;;17.26;49.84
38616;BME280;24370;51.986;4.666;2023-02-23T05:58:21;101457.56;;;17.37;50.02
38616;BME280;24370;51.986;4.666;2023-02-23T06:00:47;101462.25;;;17.89;48.62
38616;BME280;24370;51.986;4.666;2023-02-23T06:03:12;101460.44;;;17.89;48.34
38616;BME280;24370;51.986;4.666;2023-02-23T06:05:38;101466.34;;;17.69;48.63
38616;BME280;24370;51.986;4.666;2023-02-23T06:08:03;101462.06;;;17.35;49.39
38616;BME280;24370;51.986;4.666;2023-02-23T06:10:29;101467.88;;;17.15;50.67
38616;BME280;24370;51.986;4.666;2023-02-23T06:12:55;101470.78;;;17.37;49.36
38616;BME280;24370;51.986;4.666;2023-02-23T06:15:20;101471.03;;;17.28;49.56
38616;BME280;24370;51.986;4.666;2023-02-23T06:17:45;101480.13;;;17.18;49.38
38616;BME280;24370;51.986;4.666;2023-02-23T06:20:11;101484.03;;;17.36;49.32
38616;BME280;24370;51.986;4.666;2023-02-23T06:22:36;101489.81;;;17.17;49.64
38616;BME280;24370;51.986;4.666;2023-02-23T06:25:02;101483.84;;;17.10;49.57
38616;BME280;24370;51.986;4.666;2023-02-23T06:27:29;101495.66;;;17.30;50.01
38616;BME280;24370;51.986;4.666;2023-02-23T06:29:55;101499.19;;;16.96;50.57
38616;BME280;24370;51.986;4.666;2023-02-23T06:32:20;101493.75;;;17.35;49.85
38616;BME280;24370;51.986;4.666;2023-02-23T06:34:45;101493.09;;;17.27;49.51
38616;BME280;24370;51.986;4.666;2023-02-23T06:37:11;101493.53;;;17.43;49.33
38616;BME280;24370;51.986;4.666;2023-02-23T06:39:36;101498.41;;;17.25;49.37
38616;BME280;24370;51.986;4.666;2023-02-23T06:42:01;101492.50;;;17.16;49.90
38616;BME280;24370;51.986;4.666;2023-02-23T06:44:27;101496.41;;;17.34;49.27
38616;BME280;24370;51.986;4.666;2023-02-23T06:46:52;101497.16;;;17.06;49.26
38616;BME280;24370;51.986;4.666;2023-02-23T06:49:18;101495.91;;;17.21;49.64
38616;BME280;24370;51.986;4.666;2023-02-23T06:51:43;101512.75;;;16.81;50.30
38616;BME280;24370;51.986;4.666;2023-02-23T06:54:09;101505.53;;;16.89;50.83
38616;BME280;24370;51.986;4.666;2023-02-23T06:56:34;101517.34;;;17.08;49.82
38616;BME280;24370;51.986;4.666;2023-02-23T06:59:00;101517.75;;;16.93;49.91
38616;BME280;24370;51.986;4.666;2023-02-23T07:01:25;101521.97;;;16.64;51.15
38616;BME280;24370;51.986;4.666;2023-02-23T07:03:50;101527.91;;;17.08;50.63
38616;BME280;24370;51.986;4.666;2023-02-23T07:06:16;101530.19;;;16.88;50.66
38616;BME280;24370;51.986;4.666;2023-02-23T07:08:41;101533.00;;;16.05;53.43
38616;BME280;24370;51.986;4.666;2023-02-23T07:11:13;101544.06;;;16.21;52.64
38616;BME280;24370;51.986;4.666;2023-02-23T07:13:39;101547.19;;;16.38;52.79
38616;BME280;24370;51.986;4.666;2023-02-23T07:16:06;101549.88;;;15.96;54.46
38616;BME280;24370;51.986;4.666;2023-02-23T07:18:31;101561.06;;;16.47;52.27
38616;BME280;24370;51.986;4.666;2023-02-23T07:20:57;101563.91;;;16.37;52.55
38616;BME280;24370;51.986;4.666;2023-02-23T07:23:22;101570.03;;;16.39;53.52
38616;BME280;24370;51.986;4.666;2023-02-23T07:25:52;101572.72;;;17.11;50.91
38616;BME280;24370;51.986;4.666;2023-02-23T07:28:18;101586.66;;;16.44;52.11
38616;BME280;24370;51.986;4.666;2023-02-23T07:30:43;101581.41;;;16.41;53.95
38616;BME280;24370;51.986;4.666;2023-02-23T07:33:09;101579.03;;;16.29;53.84
38616;BME280;24370;51.986;4.666;2023-02-23T07:35:34;101589.03;;;15.69;55.06
38616;BME280;24370;51.986;4.666;2023-02-23T07:37:59;101589.81;;;16.20;53.88
38616;BME280;24370;51.986;4.666;2023-02-23T07:40:25;101597.63;;;15.81;54.34
38616;BME280;24370;51.986;4.666;2023-02-23T07:42:51;101591.22;;;16.36;54.42
38616;BME280;24370;51.986;4.666;2023-02-23T07:45:16;101595.31;;;15.64;55.82
38616;BME280;24370;51.986;4.666;2023-02-23T07:47:42;101599.28;;;16.69;52.17
38616;BME280;24370;51.986;4.666;2023-02-23T07:50:08;101597.53;;;16.27;54.26
38616;BME280;24370;51.986;4.666;2023-02-23T07:52:38;101599.22;;;15.91;54.87
38616;BME280;24370;51.986;4.666;2023-02-23T07:55:05;101603.97;;;16.14;55.06
38616;BME280;24370;51.986;4.666;2023-02-23T07:57:31;101603.97;;;16.14;55.02
38616;BME280;24370;51.986;4.666;2023-02-23T07:59:57;101607.06;;;16.36;54.44
38616;BME280;24370;51.986;4.666;2023-02-23T08:02:22;101611.91;;;15.67;54.65
38616;BME280;24370;51.986;4.666;2023-02-23T08:04:47;101608.84;;;16.34;54.56
38616;BME280;24370;51.986;4.666;2023-02-23T08:07:13;101609.03;;;17.03;52.09
38616;BME280;24370;51.986;4.666;2023-02-23T08:09:38;101617.66;;;16.33;52.59
38616;BME280;24370;51.986;4.666;2023-02-23T08:12:04;101623.69;;;17.17;51.25
38616;BME280;24370;51.986;4.666;2023-02-23T08:14:29;101628.59;;;17.30;51.16
38616;BME280;24370;51.986;4.666;2023-02-23T08:16:55;101624.84;;;16.25;53.21
38616;BME280;24370;51.986;4.666;2023-02-23T08:19:20;101629.63;;;17.25;52.08
38616;BME280;24370;51.986;4.666;2023-02-23T08:21:49;101634.66;;;16.18;53.54
38616;BME280;24370;51.986;4.666;2023-02-23T08:24:15;101635.94;;;16.42;53.26
38616;BME280;24370;51.986;4.666;2023-02-23T08:26:41;101633.75;;;15.24;56.25
38616;BME280;24370;51.986;4.666;2023-02-23T08:29:07;101641.09;;;15.58;54.74
38616;BME280;24370;51.986;4.666;2023-02-23T08:31:33;101639.94;;;15.71;56.98
38616;BME280;24370;51.986;4.666;2023-02-23T08:33:58;101640.34;;;15.50;56.72
38616;BME280;24370;51.986;4.666;2023-02-23T08:36:24;101636.34;;;15.75;55.58
38616;BME280;24370;51.986;4.666;2023-02-23T08:38:49;101643.41;;;15.23;58.68
38616;BME280;24370;51.986;4.666;2023-02-23T08:41:15;101638.03;;;16.25;55.16
38616;BME280;24370;51.986;4.666;2023-02-23T08:43:40;101641.78;;;16.15;53.98
38616;BME280;24370;51.986;4.666;2023-02-23T08:46:06;101642.81;;;16.07;54.00
38616;BME280;24370;51.986;4.666;2023-02-23T08:48:32;101649.91;;;16.85;51.47
38616;BME280;24370;51.986;4.666;2023-02-23T08:50:58;101649.84;;;16.07;53.93
38616;BME280;24370;51.986;4.666;2023-02-23T08:53:24;101655.09;;;15.60;55.46
38616;BME280;24370;51.986;4.666;2023-02-23T08:55:58;101664.09;;;15.98;55.15
38616;BME280;24370;51.986;4.666;2023-02-23T08:58:25;101670.81;;;15.12;56.96
38616;BME280;24370;51.986;4.666;2023-02-23T09:00:50;101668.06;;;15.21;57.56
38616;BME280;24370;51.986;4.666;2023-02-23T09:03:16;101675.66;;;15.39;58.37
38616;BME280;24370;51.986;4.666;2023-02-23T09:05:41;101673.88;;;15.91;54.59
38616;BME280;24370;51.986;4.666;2023-02-23T09:08:08;101672.09;;;16.37;52.92
38616;BME280;24370;51.986;4.666;2023-02-23T09:10:33;101677.69;;;17.03;51.82
38616;BME280;24370;51.986;4.666;2023-02-23T09:13:00;101666.75;;;16.40;53.79
38616;BME280;24370;51.986;4.666;2023-02-23T09:15:25;101683.56;;;15.91;53.88
38616;BME280;24370;51.986;4.666;2023-02-23T09:17:51;101683.72;;;15.82;54.67
38616;BME280;24370;51.986;4.666;2023-02-23T09:20:16;101682.25;;;16.56;51.97
38616;BME280;24370;51.986;4.666;2023-02-23T09:22:42;101686.69;;;17.32;51.88
38616;BME280;24370;51.986;4.666;2023-02-23T09:25:15;101695.31;;;16.20;53.27
38616;BME280;24370;51.986;4.666;2023-02-23T09:27:51;101704.94;;;16.65;53.73
38616;BME280;24370;51.986;4.666;2023-02-23T09:30:18;101701.16;;;15.37;56.30
38616;BME280;24370;51.986;4.666;2023-02-23T09:32:51;101696.66;;;16.82;52.58
38616;BME280;24370;51.986;4.666;2023-02-23T09:35:19;101700.13;;;16.41;52.01
38616;BME280;24370;51.986;4.666;2023-02-23T09:37:49;101690.75;;;16.26;52.93
38616;BME280;24370;51.986;4.666;2023-02-23T09:40:18;101695.38;;;17.01;51.17
38616;BME280;24370;51.986;4.666;2023-02-23T09:48:22;101695.59;;;16.48;54.39
38616;BME280;24370;51.986;4.666;2023-02-23T09:50:54;101692.28;;;16.81;51.42
38616;BME280;24370;51.986;4.666;2023-02-23T09:53:29;101682.28;;;16.95;51.45
38616;BME280;24370;51.986;4.666;2023-02-23T09:55:57;101684.28;;;16.84;51.53
38616;BME280;24370;51.986;4.666;2023-02-23T09:58:30;101690.19;;;15.09;55.37
38616;BME280;24370;51.986;4.666;2023-02-23T10:01:22;101696.38;;;16.53;52.15
38616;BME280;24370;51.986;4.666;2023-02-23T10:06:23;101693.41;;;16.69;51.57
38616;BME280;24370;51.986;4.666;2023-02-23T10:12:03;101704.06;;;17.42;50.29
38616;BME280;24370;51.986;4.666;2023-02-23T10:22:49;101698.91;;;15.66;53.69
38616;BME280;24370;51.986;4.666;2023-02-23T10:25:26;101705.56;;;16.35;53.74
38616;BME280;24370;51.986;4.666;2023-02-23T10:27:54;101719.81;;;16.25;53.48
38616;BME280;24370;51.986;4.666;2023-02-23T10:30:25;101706.66;;;17.08;50.35
38616;BME280;24370;51.986;4.666;2023-02-23T10:35:21;101720.44;;;16.39;52.08
38616;BME280;24370;51.986;4.666;2023-02-23T10:37:48;101729.16;;;15.96;52.93
38616;BME280;24370;51.986;4.666;2023-02-23T10:40:25;101712.13;;;16.58;52.60
38616;BME280;24370;51.986;4.666;2023-02-23T10:42:53;101715.78;;;16.51;51.85
38616;BME280;24370;51.986;4.666;2023-02-23T10:45:25;101722.06;;;15.47;55.81
38616;BME280;24370;51.986;4.666;2023-02-23T10:50:26;101729.19;;;15.41;54.72
38616;BME280;24370;51.986;4.666;2023-02-23T10:52:56;101724.84;;;16.37;52.41
38616;BME280;24370;51.986;4.666;2023-02-23T10:55:30;101722.81;;;16.52;52.25
38616;BME280;24370;51.986;4.666;2023-02-23T10:58:19;101727.19;;;15.56;55.29
38616;BME280;24370;51.986;4.666;2023-02-23T11:01:02;101715.47;;;15.72;55.06
38616;BME280;24370;51.986;4.666;2023-02-23T11:03:38;101729.44;;;15.81;55.19
38616;BME280;24370;51.986;4.666;2023-02-23T11:06:05;101728.75;;;16.18;55.21
38616;BME280;24370;51.986;4.666;2023-02-23T11:08:34;101725.16;;;15.72;54.35
38616;BME280;24370;51.986;4.666;2023-02-23T11:11:27;101732.03;;;15.82;57.32
38616;BME280;24370;51.986;4.666;2023-02-23T11:13:56;101725.06;;;15.78;56.17
38616;BME280;24370;51.986;4.666;2023-02-23T11:16:29;101732.09;;;15.23;57.79
38616;BME280;24370;51.986;4.666;2023-02-23T11:19:03;101730.06;;;15.95;55.76
38616;BME280;24370;51.986;4.666;2023-02-23T11:21:36;101735.06;;;16.10;54.61
38616;BME280;24370;51.986;4.666;2023-02-23T11:26:37;101750.09;;;16.05;55.79
38616;BME280;24370;51.986;4.666;2023-02-23T11:29:15;101750.44;;;15.87;55.81
38616;BME280;24370;51.986;4.666;2023-02-23T11:31:47;101743.81;;;15.59;56.71
38616;BME280;24370;51.986;4.666;2023-02-23T11:34:21;101742.72;;;16.23;57.36
38616;BME280;24370;51.986;4.666;2023-02-23T11:37:05;101736.00;;;16.06;54.98
38616;BME280;24370;51.986;4.666;2023-02-23T11:39:31;101735.28;;;15.98;55.68
38616;BME280;24370;51.986;4.666;2023-02-23T11:42:16;101714.94;;;16.91;53.55
38616;BME280;24370;51.986;4.666;2023-02-23T11:45:00;101714.94;;;16.91;51.39
38616;BME280;24370;51.986;4.666;2023-02-23T11:47:28;101713.31;;;17.60;51.30
38616;BME280;24370;51.986;4.666;2023-02-23T11:49:55;101718.94;;;16.68;52.84
38616;BME280;24370;51.986;4.666;2023-02-23T11:52:23;101715.72;;;16.54;53.35
38616;BME280;24370;51.986;4.666;2023-02-23T11:55:00;101718.66;;;17.21;51.52
38616;BME280;24370;51.986;4.666;2023-02-23T11:57:29;101719.25;;;17.34;50.51
38616;BME280;24370;51.986;4.666;2023-02-23T11:59:58;101729.03;;;17.65;50.99
38616;BME280;24370;51.986;4.666;2023-02-23T12:02:30;101731.31;;;17.44;49.80
38616;BME280;24370;51.986;4.666;2023-02-23T12:07:35;101729.97;;;16.00;52.93
38616;BME280;24370;51.986;4.666;2023-02-23T12:10:21;101731.13;;;15.85;54.16
38616;BME280;24370;51.986;4.666;2023-02-23T12:12:53;101721.94;;;16.07;55.63
38616;BME280;24370;51.986;4.666;2023-02-23T12:15:28;101731.44;;;16.16;54.25
38616;BME280;24370;51.986;4.666;2023-02-23T12:18:03;101729.28;;;15.90;54.53
38616;BME280;24370;51.986;4.666;2023-02-23T12:20:36;101731.81;;;16.41;53.28
38616;BME280;24370;51.986;4.666;2023-02-23T12:23:07;101732.78;;;15.34;55.96
38616;BME280;24370;51.986;4.666;2023-02-23T12:25:44;101732.16;;;16.24;53.49
38616;BME280;24370;51.986;4.666;2023-02-23T12:28:36;101728.81;;;16.60;53.24
38616;BME280;24370;51.986;4.666;2023-02-23T12:33:46;101719.41;;;16.87;52.70
38616;BME280;24370;51.986;4.666;2023-02-23T12:36:49;101712.38;;;16.45;53.57
38616;BME280;24370;51.986;4.666;2023-02-23T12:39:21;101719.03;;;16.65;51.95
38616;BME280;24370;51.986;4.666;2023-02-23T12:42:12;101721.88;;;16.10;51.88
38616;BME280;24370;51.986;4.666;2023-02-23T12:44:48;101728.50;;;16.30;51.38
38616;BME280;24370;51.986;4.666;2023-02-23T12:47:40;101719.53;;;16.40;52.95
38616;BME280;24370;51.986;4.666;2023-02-23T12:50:31;101729.44;;;16.27;52.17
38616;BME280;24370;51.986;4.666;2023-02-23T12:55:38;101719.03;;;18.12;48.23
38616;BME280;24370;51.986;4.666;2023-02-23T12:58:14;101724.56;;;17.33;49.14
38616;BME280;24370;51.986;4.666;2023-02-23T13:00:54;101722.06;;;16.89;50.22
38616;BME280;24370;51.986;4.666;2023-02-23T13:06:10;101724.09;;;15.84;52.43
38616;BME280;24370;51.986;4.666;2023-02-23T13:08:55;101720.28;;;16.45;52.86
38616;BME280;24370;51.986;4.666;2023-02-23T13:11:34;101716.03;;;16.38;51.63
38616;BME280;24370;51.986;4.666;2023-02-23T13:14:18;101715.56;;;17.04;49.59
38616;BME280;24370;51.986;4.666;2023-02-23T13:16:50;101717.72;;;18.27;48.18
38616;BME280;24370;51.986;4.666;2023-02-23T13:20:04;101708.03;;;16.84;49.83
38616;BME280;24370;51.986;4.666;2023-02-23T13:22:36;101722.81;;;16.52;51.23
38616;BME280;24370;51.986;4.666;2023-02-23T13:25:30;101720.84;;;15.68;52.49
38616;BME280;24370;51.986;4.666;2023-02-23T13:28:01;101718.81;;;16.74;50.19
38616;BME280;24370;51.986;4.666;2023-02-23T13:30:30;101721.28;;;17.23;50.44
38616;BME280;24370;51.986;4.666;2023-02-23T13:32:58;101713.59;;;16.71;51.32
38616;BME280;24370;51.986;4.666;2023-02-23T13:35:30;101716.69;;;16.04;54.07
38616;BME280;24370;51.986;4.666;2023-02-23T13:44:06;101712.50;;;17.21;50.50
38616;BME280;24370;51.986;4.666;2023-02-23T13:49:53;101719.41;;;16.01;53.91
38616;BME280;24370;51.986;4.666;2023-02-23T13:52:37;101719.41;;;16.47;52.25
38616;BME280;24370;51.986;4.666;2023-02-23T13:57:51;101712.34;;;16.89;51.19
38616;BME280;24370;51.986;4.666;2023-02-23T14:00:21;101726.16;;;15.66;54.30
38616;BME280;24370;51.986;4.666;2023-02-23T14:02:47;101721.34;;;15.91;54.00
38616;BME280;24370;51.986;4.666;2023-02-23T14:07:47;101724.59;;;16.50;53.36
38616;BME280;24370;51.986;4.666;2023-02-23T14:10:21;101720.53;;;16.75;52.31
38616;BME280;24370;51.986;4.666;2023-02-23T14:13:07;101716.53;;;16.14;53.98
38616;BME280;24370;51.986;4.666;2023-02-23T14:15:48;101714.34;;;16.78;52.40
38616;BME280;24370;51.986;4.666;2023-02-23T14:28:45;101717.94;;;15.85;53.75
38616;BME280;24370;51.986;4.666;2023-02-23T14:41:28;101713.03;;;16.98;50.76
38616;BME280;24370;51.986;4.666;2023-02-23T14:43:54;101706.66;;;17.08;50.23
38616;BME280;24370;51.986;4.666;2023-02-23T14:46:24;101719.78;;;15.78;53.80
38616;BME280;24370;51.986;4.666;2023-02-23T14:49:05;101713.50;;;16.34;53.71
38616;BME280;24370;51.986;4.666;2023-02-23T14:51:54;101709.81;;;17.58;50.54
38616;BME280;24370;51.986;4.666;2023-02-23T14:54:29;101715.44;;;16.25;53.20
38616;BME280;24370;51.986;4.666;2023-02-23T14:56:57;101717.59;;;16.49;52.61